Aviation Digital Data Service (ADDS)

Output produced by METARs form (2139 UTC 24 March 2019)
found at http://www.aviationweather.gov/metar/data/
 
MRLB 241700Z 2418/2518 09016KT CAVOK TX35/2419Z TN22/2510Z 
     TEMPO 2506/2513 29004KT
       
MROC 241700Z 2418/2518 10014KT CAVOK TX30/2419Z TN20/2511Z
       
MRLM 241700Z 2418/2518 05004KT 9999 FEW020 BKN100 TX29/2420Z TN21/2511Z 
     BECMG 2500/2502 26003KT 
     TEMPO 2506/2512 DZ BKN015
       
MRPV 241700Z 2418/2518 09015KT CAVOK TX28/2420Z TN19/2510Z